createdAt,value
2019-03-22T00:01:18.264Z,9.80
2019-03-22T00:03:46.094Z,9.80
2019-03-22T00:06:13.991Z,9.70
2019-03-22T00:08:42.081Z,9.70
2019-03-22T00:11:10.009Z,9.60
2019-03-22T00:13:37.845Z,9.60
2019-03-22T00:16:05.721Z,9.60
2019-03-22T00:18:33.868Z,9.50
2019-03-22T00:21:01.750Z,9.50
2019-03-22T00:23:29.631Z,9.50
2019-03-22T00:25:57.499Z,9.40
2019-03-22T00:28:25.339Z,9.40
2019-03-22T00:30:53.301Z,9.40
2019-03-22T00:33:21.481Z,9.30
2019-03-22T00:35:49.532Z,9.30
2019-03-22T00:38:17.579Z,9.30
2019-03-22T00:40:45.481Z,9.30
2019-03-22T00:43:13.391Z,9.20
2019-03-22T00:45:41.503Z,9.20
2019-03-22T00:48:09.358Z,9.20
2019-03-22T00:50:37.490Z,9.20
2019-03-22T00:53:05.380Z,9.10
2019-03-22T00:55:33.246Z,9.10
2019-03-22T00:58:02.921Z,9.00
2019-03-22T01:00:30.876Z,9.10
2019-03-22T01:02:58.760Z,9.00
2019-03-22T01:05:26.661Z,9.00
2019-03-22T01:07:54.513Z,9.00
2019-03-22T01:10:22.513Z,9.00
2019-03-22T01:12:50.350Z,8.90
2019-03-22T01:15:18.222Z,8.90
2019-03-22T01:17:46.285Z,8.90
2019-03-22T01:20:14.195Z,8.90
2019-03-22T01:22:41.995Z,8.90
2019-03-22T01:25:10.219Z,8.80
2019-03-22T01:27:41.410Z,8.80
2019-03-22T01:30:12.245Z,8.80
2019-03-22T01:32:40.231Z,8.80
2019-03-22T01:35:08.233Z,8.80
2019-03-22T01:37:36.100Z,8.80
2019-03-22T01:40:05.637Z,8.80
2019-03-22T01:42:33.427Z,8.80
2019-03-22T01:45:01.300Z,8.70
2019-03-22T01:47:29.205Z,8.70
2019-03-22T01:49:57.289Z,8.70
2019-03-22T01:52:25.164Z,8.70
2019-03-22T01:54:53.024Z,8.70
2019-03-22T01:57:21.002Z,8.70
2019-03-22T01:59:50.167Z,8.60
2019-03-22T02:02:18.067Z,8.60
2019-03-22T02:04:45.949Z,8.60
2019-03-22T02:07:13.791Z,8.60
2019-03-22T02:09:41.712Z,8.60
2019-03-22T02:12:09.964Z,8.60
2019-03-22T02:14:37.729Z,8.50
2019-03-22T02:17:07.714Z,8.50
2019-03-22T02:19:35.301Z,8.50
2019-03-22T02:22:03.190Z,8.40
2019-03-22T02:24:31.110Z,8.40
2019-03-22T02:26:59.201Z,8.40
2019-03-22T02:29:27.044Z,8.50
2019-03-22T02:31:55.059Z,8.50
2019-03-22T02:34:22.847Z,8.60
2019-03-22T02:36:52.913Z,8.70
2019-03-22T02:39:22.488Z,8.80
2019-03-22T02:41:50.341Z,8.90
2019-03-22T02:44:18.215Z,9.00
2019-03-22T02:46:46.029Z,9.00
2019-03-22T02:49:16.948Z,9.00
2019-03-22T02:51:44.841Z,9.10
2019-03-22T02:54:12.633Z,9.00
2019-03-22T02:56:40.533Z,9.00
2019-03-22T02:59:08.370Z,8.90
2019-03-22T03:01:36.173Z,8.90
2019-03-22T03:04:04.070Z,8.80
2019-03-22T03:06:33.975Z,8.80
2019-03-22T03:09:03.610Z,8.80
2019-03-22T03:11:33.082Z,8.90
2019-03-22T03:14:00.874Z,8.90
2019-03-22T03:16:29.920Z,9.00
2019-03-22T03:18:57.854Z,9.10
2019-03-22T03:21:27.331Z,9.10
2019-03-22T03:23:55.243Z,9.20
2019-03-22T03:26:23.310Z,9.20
2019-03-22T03:28:51.175Z,9.30
2019-03-22T03:31:19.197Z,9.30
2019-03-22T03:33:48.281Z,9.40
2019-03-22T03:36:16.338Z,9.40
2019-03-22T03:38:44.153Z,9.50
2019-03-22T03:41:11.949Z,9.50
2019-03-22T03:43:39.809Z,9.50
2019-03-22T03:46:07.789Z,9.60
2019-03-22T03:48:35.783Z,9.60
2019-03-22T03:51:03.654Z,9.60
2019-03-22T03:53:32.747Z,9.60
2019-03-22T03:56:00.771Z,9.70
2019-03-22T03:58:28.663Z,9.60
2019-03-22T04:00:56.605Z,9.60
2019-03-22T04:03:24.459Z,9.60
2019-03-22T04:05:52.297Z,9.60
2019-03-22T04:08:20.331Z,9.60
2019-03-22T04:10:48.256Z,9.60
2019-03-22T04:13:16.149Z,9.60
2019-03-22T04:15:44.155Z,9.60
2019-03-22T04:18:12.257Z,9.60
2019-03-22T04:20:40.249Z,9.60
2019-03-22T04:23:08.039Z,9.60
2019-03-22T04:25:35.884Z,9.60
2019-03-22T04:28:03.755Z,9.70
2019-03-22T04:30:31.721Z,9.70
2019-03-22T04:32:59.626Z,9.70
2019-03-22T04:35:27.542Z,9.70
2019-03-22T04:37:55.393Z,9.80
2019-03-22T04:40:29.723Z,9.80
2019-03-22T04:42:57.601Z,9.80
2019-03-22T04:45:25.988Z,9.90
2019-03-22T04:48:01.526Z,9.80
2019-03-22T04:50:29.367Z,9.80
2019-03-22T04:52:57.311Z,9.80
2019-03-22T04:55:25.421Z,9.80
2019-03-22T04:57:53.260Z,9.90
2019-03-22T05:00:21.202Z,9.90
2019-03-22T05:02:49.220Z,9.90
2019-03-22T05:05:18.456Z,10.00
2019-03-22T05:07:46.411Z,10.00
2019-03-22T05:10:14.358Z,10.00
2019-03-22T05:12:42.185Z,10.00
2019-03-22T05:15:10.723Z,10.00
2019-03-22T05:17:38.832Z,10.10
2019-03-22T05:20:06.719Z,10.10
2019-03-22T05:22:34.533Z,10.10
2019-03-22T05:25:02.398Z,10.20
2019-03-22T05:27:30.350Z,10.20
2019-03-22T05:29:58.364Z,10.20
2019-03-22T05:32:27.892Z,10.20
2019-03-22T05:34:55.863Z,10.30
2019-03-22T05:37:23.677Z,10.30
2019-03-22T05:39:53.668Z,10.40
2019-03-22T05:42:21.549Z,10.40
2019-03-22T05:44:49.347Z,10.50
2019-03-22T05:47:17.298Z,10.50
2019-03-22T05:49:45.115Z,10.50
2019-03-22T05:52:14.026Z,10.50
2019-03-22T05:54:41.880Z,10.60
2019-03-22T05:57:13.767Z,10.60
2019-03-22T05:59:42.849Z,10.70
2019-03-22T06:02:08.821Z,10.70
2019-03-22T06:04:36.681Z,10.80
2019-03-22T06:07:04.470Z,10.90
2019-03-22T06:09:32.305Z,11.00
2019-03-22T06:12:00.145Z,11.00
2019-03-22T06:14:28.430Z,11.00
2019-03-22T06:16:56.591Z,11.10
2019-03-22T06:19:24.676Z,11.10
2019-03-22T06:21:52.508Z,11.10
2019-03-22T06:24:22.302Z,11.20
2019-03-22T06:26:50.152Z,11.20
2019-03-22T06:29:18.145Z,11.20
2019-03-22T06:31:46.376Z,11.20
2019-03-22T06:34:14.487Z,11.20
2019-03-22T06:36:42.577Z,11.30
2019-03-22T06:39:10.625Z,11.40
2019-03-22T06:41:38.525Z,11.40
2019-03-22T06:44:06.406Z,11.50
2019-03-22T06:46:34.317Z,11.50
2019-03-22T06:49:03.884Z,11.60
2019-03-22T06:51:31.924Z,11.60
2019-03-22T06:54:00.026Z,11.60
2019-03-22T06:56:28.493Z,11.60
2019-03-22T06:58:56.534Z,11.60
2019-03-22T07:01:24.751Z,11.60
2019-03-22T07:03:52.892Z,11.60
2019-03-22T07:06:21.355Z,11.70
2019-03-22T07:08:49.526Z,11.70
2019-03-22T07:11:17.429Z,11.70
2019-03-22T07:13:45.374Z,11.60
2019-03-22T07:16:13.368Z,11.60
2019-03-22T07:18:43.007Z,11.60
2019-03-22T07:21:11.057Z,11.60
2019-03-22T07:23:38.920Z,11.70
2019-03-22T07:26:08.210Z,11.70
2019-03-22T07:28:37.071Z,11.70
2019-03-22T07:31:05.624Z,11.80
2019-03-22T07:33:34.212Z,11.90
2019-03-22T07:36:03.460Z,12.00
2019-03-22T07:38:31.752Z,12.00
2019-03-22T07:40:59.930Z,12.10
2019-03-22T07:43:28.138Z,12.10
2019-03-22T07:45:56.693Z,12.10
2019-03-22T07:48:24.634Z,12.10
2019-03-22T07:50:53.157Z,12.10
2019-03-22T07:53:21.512Z,12.10
2019-03-22T07:55:49.676Z,12.10
2019-03-22T07:58:17.915Z,12.20
2019-03-22T08:00:46.096Z,12.30
2019-03-22T08:03:14.364Z,12.30
2019-03-22T08:05:50.916Z,12.40
2019-03-22T08:08:12.645Z,12.50
2019-03-22T08:10:41.078Z,12.60
2019-03-22T08:13:09.478Z,12.70
2019-03-22T08:15:37.669Z,12.80
2019-03-22T08:18:06.681Z,13.00
2019-03-22T08:20:34.874Z,13.10
2019-03-22T08:23:06.700Z,13.20
2019-03-22T08:25:35.121Z,13.30
2019-03-22T08:28:03.704Z,13.30
2019-03-22T08:30:42.839Z,13.30
2019-03-22T08:33:09.535Z,13.20
2019-03-22T08:35:38.450Z,13.20
2019-03-22T08:38:06.688Z,13.10
2019-03-22T08:40:35.012Z,13.10
2019-03-22T08:43:03.152Z,13.10
2019-03-22T08:45:32.486Z,13.10
2019-03-22T08:48:03.588Z,13.00
2019-03-22T08:50:31.877Z,13.00
2019-03-22T08:53:04.551Z,13.00
2019-03-22T08:55:34.222Z,13.10
2019-03-22T08:58:02.733Z,13.00
2019-03-22T09:00:39.116Z,13.00
2019-03-22T09:03:02.902Z,13.10
2019-03-22T09:05:31.215Z,13.10
2019-03-22T09:07:59.330Z,13.20
2019-03-22T09:10:27.655Z,13.10
2019-03-22T09:12:56.454Z,13.10
2019-03-22T09:15:24.632Z,13.00
2019-03-22T09:17:52.848Z,13.00
2019-03-22T09:20:21.079Z,13.10
2019-03-22T09:22:49.500Z,13.20
2019-03-22T09:25:17.814Z,13.20
2019-03-22T09:27:45.921Z,13.10
2019-03-22T09:30:14.550Z,13.10
2019-03-22T09:32:52.520Z,13.20
2019-03-22T09:35:20.414Z,13.20
2019-03-22T09:37:48.890Z,13.30
2019-03-22T09:40:16.902Z,13.30
2019-03-22T09:42:47.925Z,13.40
2019-03-22T09:45:17.681Z,13.50
2019-03-22T09:47:46.678Z,13.60
2019-03-22T09:50:15.902Z,13.60
2019-03-22T09:52:44.712Z,13.70
2019-03-22T09:55:14.544Z,13.70
2019-03-22T09:57:43.636Z,13.80
2019-03-22T10:00:15.781Z,14.00
2019-03-22T10:02:48.231Z,14.00
2019-03-22T10:05:17.565Z,14.00
2019-03-22T10:07:46.292Z,13.90
2019-03-22T10:10:15.856Z,13.90
2019-03-22T10:12:45.261Z,13.90
2019-03-22T10:15:16.107Z,13.90
2019-03-22T10:17:48.311Z,13.90
2019-03-22T10:20:17.431Z,13.90
2019-03-22T10:22:46.694Z,13.90
2019-03-22T10:25:16.006Z,13.90
2019-03-22T10:27:45.101Z,13.90
2019-03-22T10:30:18.274Z,14.00
2019-03-22T10:32:47.672Z,14.00
2019-03-22T10:35:25.899Z,14.00
2019-03-22T10:37:47.702Z,14.00
2019-03-22T10:40:16.906Z,14.00
2019-03-22T10:42:45.242Z,14.00
2019-03-22T10:45:13.800Z,14.00
2019-03-22T10:47:44.659Z,14.00
2019-03-22T10:50:13.304Z,13.90
2019-03-22T10:52:41.638Z,13.90
2019-03-22T10:55:28.523Z,13.90
2019-03-22T10:57:41.812Z,13.80
2019-03-22T11:00:11.297Z,13.70
2019-03-22T11:02:39.944Z,13.70
2019-03-22T11:05:08.599Z,13.60
2019-03-22T11:07:37.295Z,13.60
2019-03-22T11:10:06.924Z,13.60
2019-03-22T11:12:35.334Z,13.60
2019-03-22T11:15:04.405Z,13.60
2019-03-22T11:17:32.629Z,13.60
2019-03-22T11:20:01.089Z,13.60
2019-03-22T11:22:29.445Z,13.60
2019-03-22T11:24:57.692Z,13.60
2019-03-22T11:27:25.841Z,13.60
2019-03-22T11:29:54.012Z,13.60
2019-03-22T11:32:22.284Z,13.70
2019-03-22T11:34:50.811Z,13.70
2019-03-22T11:37:19.151Z,13.70
2019-03-22T11:39:47.793Z,13.70
2019-03-22T11:42:16.119Z,13.80
2019-03-22T11:44:44.407Z,13.70
2019-03-22T11:47:15.370Z,13.80
2019-03-22T11:49:43.645Z,13.80
2019-03-22T11:52:12.506Z,13.70
2019-03-22T11:54:42.302Z,13.70
2019-03-22T11:57:10.542Z,13.70
2019-03-22T11:59:38.623Z,13.70
2019-03-22T12:02:06.929Z,13.70
2019-03-22T12:04:35.346Z,13.70
2019-03-22T12:07:05.053Z,13.70
2019-03-22T12:09:33.717Z,13.70
2019-03-22T12:12:01.955Z,13.60
2019-03-22T12:14:30.159Z,13.60
2019-03-22T12:16:58.528Z,13.70
2019-03-22T12:19:26.821Z,13.60
2019-03-22T12:21:55.263Z,13.60
2019-03-22T12:24:23.449Z,13.60
2019-03-22T12:26:51.944Z,13.60
2019-03-22T12:29:20.006Z,13.60
2019-03-22T12:31:48.341Z,13.50
2019-03-22T12:34:18.607Z,13.50
2019-03-22T12:36:47.093Z,13.40
2019-03-22T12:39:15.163Z,13.40
2019-03-22T12:41:43.437Z,13.30
2019-03-22T12:44:14.294Z,13.30
2019-03-22T12:46:42.730Z,13.30
2019-03-22T12:49:10.817Z,13.30
2019-03-22T12:51:39.285Z,13.20
2019-03-22T12:54:08.907Z,13.20
2019-03-22T12:56:36.955Z,13.20
2019-03-22T12:59:05.141Z,13.20
2019-03-22T13:01:34.991Z,13.20
2019-03-22T13:04:03.577Z,13.10
2019-03-22T13:06:32.064Z,13.10
2019-03-22T13:09:01.110Z,13.00
2019-03-22T13:11:29.683Z,13.00
2019-03-22T13:13:58.223Z,13.00
2019-03-22T13:16:26.819Z,12.90
2019-03-22T13:18:54.851Z,12.90
2019-03-22T13:21:23.302Z,12.90
2019-03-22T13:23:51.792Z,12.90
2019-03-22T13:26:21.723Z,12.90
2019-03-22T13:28:51.582Z,12.90
2019-03-22T13:31:20.121Z,12.90
2019-03-22T13:33:48.523Z,12.90
2019-03-22T13:36:17.210Z,12.90
2019-03-22T13:38:47.642Z,12.80
2019-03-22T13:41:17.192Z,12.80
2019-03-22T13:43:45.863Z,12.80
2019-03-22T13:46:14.218Z,12.90
2019-03-22T13:48:42.732Z,12.90
2019-03-22T13:51:11.835Z,12.80
2019-03-22T13:53:40.344Z,12.80
2019-03-22T13:56:09.111Z,12.80
2019-03-22T13:58:37.491Z,12.80
2019-03-22T14:01:05.890Z,12.70
2019-03-22T14:03:34.291Z,12.70
2019-03-22T14:06:02.646Z,12.60
2019-03-22T14:08:31.149Z,12.60
2019-03-22T14:10:59.578Z,12.60
2019-03-22T14:13:28.013Z,12.50
2019-03-22T14:15:56.327Z,12.50
2019-03-22T14:18:26.674Z,12.40
2019-03-22T14:20:57.248Z,12.40
2019-03-22T14:23:25.886Z,12.40
2019-03-22T14:25:54.728Z,12.40
2019-03-22T14:28:23.322Z,12.40
2019-03-22T14:30:51.817Z,12.40
2019-03-22T14:33:20.299Z,12.50
2019-03-22T14:35:50.188Z,12.60
2019-03-22T14:38:18.898Z,12.60
2019-03-22T14:40:47.486Z,12.70
2019-03-22T14:43:16.113Z,12.80
2019-03-22T14:45:43.974Z,12.80
2019-03-22T14:48:12.206Z,12.90
2019-03-22T14:50:40.276Z,12.90
2019-03-22T14:53:08.416Z,12.80
2019-03-22T14:55:36.801Z,12.80
2019-03-22T14:58:05.032Z,12.80
2019-03-22T15:00:33.221Z,12.80
2019-03-22T15:03:01.385Z,12.70
2019-03-22T15:05:29.493Z,12.70
2019-03-22T15:07:57.898Z,12.60
2019-03-22T15:10:26.085Z,12.60
2019-03-22T15:12:54.440Z,12.50
2019-03-22T15:15:24.680Z,12.50
2019-03-22T15:18:00.050Z,12.40
2019-03-22T15:20:38.047Z,12.30
2019-03-22T15:23:07.815Z,12.20
2019-03-22T15:25:43.336Z,12.10
2019-03-22T15:28:29.364Z,12.10
2019-03-22T15:31:17.456Z,12.00
2019-03-22T15:33:49.803Z,12.00
2019-03-22T15:36:36.507Z,12.00
2019-03-22T15:39:10.506Z,12.10
2019-03-22T15:41:38.654Z,12.10
2019-03-22T15:44:06.762Z,12.10
2019-03-22T15:46:35.174Z,12.20
2019-03-22T15:49:03.130Z,12.20
2019-03-22T15:51:31.292Z,12.30
2019-03-22T15:53:59.833Z,12.30
2019-03-22T15:56:27.898Z,12.40
2019-03-22T15:58:55.878Z,12.40
2019-03-22T16:01:24.557Z,12.40
2019-03-22T16:03:53.012Z,12.40
2019-03-22T16:06:21.035Z,12.40
2019-03-22T16:08:49.200Z,12.40
2019-03-22T16:11:17.168Z,12.40
2019-03-22T16:13:45.199Z,12.40
2019-03-22T16:16:13.478Z,12.30
2019-03-22T16:18:41.511Z,12.30
2019-03-22T16:21:10.043Z,12.30
2019-03-22T16:23:38.076Z,12.30
2019-03-22T16:26:06.467Z,12.30
2019-03-22T16:28:34.793Z,12.20
2019-03-22T16:31:02.969Z,12.20
2019-03-22T16:33:31.123Z,12.10
2019-03-22T16:35:59.995Z,12.10
2019-03-22T16:38:30.469Z,12.00
2019-03-22T16:40:58.493Z,11.90
2019-03-22T16:43:26.724Z,11.90
2019-03-22T16:45:54.834Z,11.90
2019-03-22T16:48:22.958Z,11.80
2019-03-22T16:50:50.865Z,11.70
2019-03-22T16:53:18.795Z,11.70
2019-03-22T16:55:46.779Z,11.60
2019-03-22T16:58:15.665Z,11.50
2019-03-22T17:00:43.827Z,11.40
2019-03-22T17:03:12.034Z,11.30
2019-03-22T17:05:43.409Z,11.20
2019-03-22T17:08:11.477Z,11.10
2019-03-22T17:10:39.591Z,11.00
2019-03-22T17:13:07.747Z,10.90
2019-03-22T17:15:35.926Z,10.80
2019-03-22T17:18:03.892Z,10.70
2019-03-22T17:20:31.933Z,10.60
2019-03-22T17:22:59.803Z,10.50
2019-03-22T17:25:28.070Z,10.40
2019-03-22T17:27:56.103Z,10.40
2019-03-22T17:30:24.195Z,10.30
2019-03-22T17:32:52.165Z,10.30
2019-03-22T17:35:20.102Z,10.20
2019-03-22T17:37:47.943Z,10.10
2019-03-22T17:40:16.090Z,10.10
2019-03-22T17:42:44.083Z,10.00
2019-03-22T17:45:13.396Z,10.00
2019-03-22T17:47:42.732Z,9.90
2019-03-22T17:50:12.140Z,9.90
2019-03-22T17:52:40.461Z,9.90
2019-03-22T17:55:09.031Z,9.80
2019-03-22T17:57:37.319Z,9.80
2019-03-22T18:00:06.172Z,9.80
2019-03-22T18:02:34.383Z,9.70
2019-03-22T18:05:02.759Z,9.70
2019-03-22T18:07:31.641Z,9.70
2019-03-22T18:09:59.826Z,9.60
2019-03-22T18:12:27.956Z,9.60
2019-03-22T18:14:57.574Z,9.60
2019-03-22T18:17:25.883Z,9.60
2019-03-22T18:19:54.039Z,9.50
2019-03-22T18:22:21.869Z,9.50
2019-03-22T18:24:49.907Z,9.50
2019-03-22T18:27:17.978Z,9.40
2019-03-22T18:29:46.678Z,9.40
2019-03-22T18:32:15.474Z,9.40
2019-03-22T18:34:43.484Z,9.30
2019-03-22T18:37:11.681Z,9.30
2019-03-22T18:39:40.067Z,9.30
2019-03-22T18:42:08.281Z,9.30
2019-03-22T18:44:36.503Z,9.20
2019-03-22T18:47:05.162Z,9.20
2019-03-22T18:49:33.554Z,9.20
2019-03-22T18:52:01.773Z,9.20
2019-03-22T18:54:30.182Z,9.10
2019-03-22T18:56:58.479Z,9.10
2019-03-22T18:59:26.732Z,9.10
2019-03-22T19:01:54.824Z,9.00
2019-03-22T19:04:23.111Z,9.00
2019-03-22T19:06:51.390Z,9.00
2019-03-22T19:09:19.223Z,9.00
2019-03-22T19:11:47.164Z,9.00
2019-03-22T19:14:15.191Z,8.90
2019-03-22T19:16:43.062Z,8.90
2019-03-22T19:19:10.932Z,8.90
2019-03-22T19:21:38.794Z,8.90
2019-03-22T19:24:06.646Z,8.80
2019-03-22T19:26:34.534Z,8.80
2019-03-22T19:29:02.393Z,8.80
2019-03-22T19:31:30.444Z,8.70
2019-03-22T19:33:59.907Z,8.70
2019-03-22T19:36:29.596Z,8.70
2019-03-22T19:38:57.750Z,8.70
2019-03-22T19:41:25.517Z,8.70
2019-03-22T19:43:53.315Z,8.70
2019-03-22T19:46:21.308Z,8.70
2019-03-22T19:48:49.121Z,8.70
2019-03-22T19:51:21.485Z,8.70
2019-03-22T19:53:52.503Z,8.80
2019-03-22T19:56:20.678Z,8.90
2019-03-22T19:58:48.859Z,9.00
2019-03-22T20:01:18.183Z,9.10
2019-03-22T20:03:46.092Z,9.20
2019-03-22T20:06:14.031Z,9.30
2019-03-22T20:08:42.172Z,9.30
2019-03-22T20:11:10.978Z,9.40
2019-03-22T20:13:39.354Z,9.40
2019-03-22T20:16:07.472Z,9.50
2019-03-22T20:18:35.459Z,9.50
2019-03-22T20:21:03.445Z,9.60
2019-03-22T20:23:31.400Z,9.60
2019-03-22T20:25:59.401Z,9.60
2019-03-22T20:28:27.471Z,9.70
2019-03-22T20:30:56.416Z,9.70
2019-03-22T20:33:24.382Z,9.80
2019-03-22T20:35:52.303Z,9.80
2019-03-22T20:38:20.958Z,9.90
2019-03-22T20:40:48.987Z,9.90
2019-03-22T20:43:16.941Z,9.90
2019-03-22T20:45:44.959Z,9.90
2019-03-22T20:48:12.855Z,10.00
2019-03-22T20:50:42.009Z,10.00
2019-03-22T20:53:10.097Z,10.10
2019-03-22T20:55:38.183Z,10.00
2019-03-22T20:58:07.350Z,10.10
2019-03-22T21:00:35.211Z,10.10
2019-03-22T21:03:03.314Z,10.10
2019-03-22T21:05:31.427Z,10.10
2019-03-22T21:07:59.432Z,10.10
2019-03-22T21:10:27.475Z,10.10
2019-03-22T21:12:55.595Z,10.10
2019-03-22T21:15:24.579Z,10.10
2019-03-22T21:17:53.109Z,10.10
2019-03-22T21:20:21.091Z,10.10
2019-03-22T21:22:49.476Z,10.10
2019-03-22T21:25:17.691Z,10.10
2019-03-22T21:27:46.017Z,10.10
2019-03-22T21:30:15.925Z,10.10
2019-03-22T21:32:45.632Z,10.10
2019-03-22T21:35:22.413Z,10.20
2019-03-22T21:37:43.690Z,10.20
2019-03-22T21:40:11.933Z,10.20
2019-03-22T21:42:40.098Z,10.30
2019-03-22T21:45:08.829Z,10.30
2019-03-22T21:47:36.891Z,10.30
2019-03-22T21:50:06.003Z,10.40
2019-03-22T21:52:34.085Z,10.30
2019-03-22T21:55:02.404Z,10.40
2019-03-22T21:57:30.570Z,10.40
2019-03-22T21:59:58.964Z,10.40
2019-03-22T22:02:27.132Z,10.40
2019-03-22T22:04:55.442Z,10.40
2019-03-22T22:07:23.629Z,10.40
2019-03-22T22:09:51.843Z,10.40
2019-03-22T22:12:19.684Z,10.40
2019-03-22T22:14:47.622Z,10.50
2019-03-22T22:17:15.413Z,10.40
2019-03-22T22:19:43.224Z,10.40
2019-03-22T22:22:11.197Z,10.40
2019-03-22T22:24:39.238Z,10.50
2019-03-22T22:27:13.690Z,10.40
2019-03-22T22:29:36.789Z,10.40
2019-03-22T22:32:04.641Z,10.40
2019-03-22T22:34:32.780Z,10.40
2019-03-22T22:37:00.613Z,10.40
2019-03-22T22:39:28.767Z,10.40
2019-03-22T22:41:57.194Z,10.40
2019-03-22T22:44:25.236Z,10.40
2019-03-22T22:46:53.396Z,10.40
2019-03-22T22:49:21.321Z,10.40
2019-03-22T22:51:49.739Z,10.40
2019-03-22T22:54:17.992Z,10.40
2019-03-22T22:56:46.874Z,10.40
2019-03-22T22:59:15.258Z,10.40
2019-03-22T23:01:43.346Z,10.40
2019-03-22T23:04:11.255Z,10.40
2019-03-22T23:06:39.311Z,10.40
2019-03-22T23:09:07.469Z,10.40
2019-03-22T23:11:35.872Z,10.40
2019-03-22T23:14:04.143Z,10.40
2019-03-22T23:16:32.457Z,10.40
2019-03-22T23:19:00.547Z,10.40
2019-03-22T23:21:28.723Z,10.40
2019-03-22T23:23:57.111Z,10.40
2019-03-22T23:26:26.941Z,10.40
2019-03-22T23:28:54.838Z,10.40
2019-03-22T23:31:22.895Z,10.40
2019-03-22T23:33:50.993Z,10.40
2019-03-22T23:36:20.591Z,10.30
2019-03-22T23:38:48.972Z,10.30
2019-03-22T23:41:16.950Z,10.20
2019-03-22T23:43:44.764Z,10.10
2019-03-22T23:46:12.967Z,10.10
2019-03-22T23:48:42.587Z,10.00
2019-03-22T23:51:12.416Z,9.90
2019-03-22T23:53:44.743Z,9.80
2019-03-22T23:56:12.916Z,9.70
2019-03-22T23:58:40.921Z,9.60
